createdAt,value
2018-08-14T00:01:49.537Z,1002.81
2018-08-14T00:02:49.562Z,1002.82
2018-08-14T00:03:49.586Z,1002.8
2018-08-14T00:04:49.610Z,1002.78
2018-08-14T00:05:49.636Z,1002.8
2018-08-14T00:06:49.661Z,1002.82
2018-08-14T00:07:49.686Z,1002.86
2018-08-14T00:08:49.712Z,1002.87
2018-08-14T00:09:49.736Z,1002.81
2018-08-14T00:10:49.761Z,1002.84
2018-08-14T00:11:49.786Z,1002.85
2018-08-14T00:12:49.809Z,1002.87
2018-08-14T00:13:49.836Z,1002.84
2018-08-14T00:14:49.866Z,1002.79
2018-08-14T00:15:49.884Z,1002.82
2018-08-14T00:17:49.940Z,1002.85
2018-08-14T00:18:49.961Z,1002.84
2018-08-14T00:19:49.984Z,1002.85
2018-08-14T00:20:50.013Z,1002.88
2018-08-14T00:21:50.035Z,1002.88
2018-08-14T00:22:50.059Z,1002.91
2018-08-14T00:23:50.085Z,1002.89
2018-08-14T00:24:50.109Z,1002.91
2018-08-14T00:25:50.136Z,1002.91
2018-08-14T00:26:50.159Z,1002.91
2018-08-14T00:27:50.182Z,1002.9
2018-08-14T00:28:50.209Z,1002.91
2018-08-14T00:29:50.238Z,1002.94
2018-08-14T00:30:50.260Z,1002.94
2018-08-14T00:32:50.308Z,1002.92
2018-08-14T00:33:50.333Z,1002.94
2018-08-14T00:34:50.360Z,1002.96
2018-08-14T00:35:50.384Z,1002.92
2018-08-14T00:36:50.409Z,1002.96
2018-08-14T00:37:50.533Z,1002.97
2018-08-14T00:38:50.457Z,1002.97
2018-08-14T00:39:50.483Z,1003.04
2018-08-14T00:40:50.508Z,1003.08
2018-08-14T00:41:50.533Z,1003.05
2018-08-14T00:42:50.556Z,1003.06
2018-08-14T00:43:50.583Z,1003.07
2018-08-14T00:44:50.606Z,1003.09
2018-08-14T00:45:50.630Z,1003.08
2018-08-14T00:46:50.657Z,1003.07
2018-08-14T00:47:50.683Z,1003.09
2018-08-14T00:48:50.706Z,1003.09
2018-08-14T00:49:50.732Z,1003.11
2018-08-14T00:50:50.756Z,1003.12
2018-08-14T00:51:50.781Z,1003.09
2018-08-14T00:52:50.806Z,1003.12
2018-08-14T00:53:50.830Z,1003.11
2018-08-14T00:54:50.855Z,1003.07
2018-08-14T00:55:50.879Z,1003.11
2018-08-14T00:56:50.905Z,1003.13
2018-08-14T00:57:50.930Z,1003.09
2018-08-14T00:58:50.954Z,1003.11
2018-08-14T00:59:50.979Z,1003.11
2018-08-14T01:00:51.005Z,1003.06
2018-08-14T01:01:51.030Z,1003.06
2018-08-14T01:02:51.054Z,1003.1
2018-08-14T01:04:51.104Z,1003.09
2018-08-14T01:05:51.128Z,1003.06
2018-08-14T01:06:51.151Z,1003.07
2018-08-14T01:07:51.176Z,1003.07
2018-08-14T01:08:51.202Z,1003.05
2018-08-14T01:09:51.228Z,1003.01
2018-08-14T01:10:51.251Z,1003.07
2018-08-14T01:11:51.327Z,1003.04
2018-08-14T01:12:51.300Z,1003.08
2018-08-14T01:13:51.325Z,1003.06
2018-08-14T01:14:51.351Z,1003.05
2018-08-14T01:15:51.377Z,1003.05
2018-08-14T01:16:51.401Z,1003.04
2018-08-14T01:17:51.424Z,1003.03
2018-08-14T01:18:51.450Z,1003.03
2018-08-14T01:20:51.499Z,1003.02
2018-08-14T01:21:51.523Z,1003.03
2018-08-14T01:22:51.549Z,1003.07
2018-08-14T01:23:51.574Z,1003.08
2018-08-14T01:24:51.598Z,1003.06
2018-08-14T01:25:51.624Z,1003.05
2018-08-14T01:26:51.678Z,1003.08
2018-08-14T01:27:51.673Z,1003.04
2018-08-14T01:28:51.697Z,1003.05
2018-08-14T01:29:51.722Z,1003.05
2018-08-14T01:30:51.747Z,1003.08
2018-08-14T01:31:51.772Z,1003.09
2018-08-14T01:32:51.797Z,1003.11
2018-08-14T01:33:51.820Z,1003.15
2018-08-14T01:34:51.845Z,1003.11
2018-08-14T01:36:51.895Z,1003.08
2018-08-14T01:37:51.920Z,1003.12
2018-08-14T01:38:51.945Z,1003.1
2018-08-14T01:39:51.969Z,1003.09
2018-08-14T01:40:51.994Z,1003.1
2018-08-14T01:41:52.020Z,1003.1
2018-08-14T01:42:52.047Z,1003.1
2018-08-14T01:43:52.069Z,1003.07
2018-08-14T01:44:52.094Z,1003.05
2018-08-14T01:45:52.118Z,1003.08
2018-08-14T01:46:52.142Z,1003.09
2018-08-14T01:47:52.170Z,1003.11
2018-08-14T01:48:52.194Z,1003.06
2018-08-14T01:49:52.217Z,1003.11
2018-08-14T01:50:52.241Z,1003.13
2018-08-14T01:52:52.291Z,1003.16
2018-08-14T01:53:52.317Z,1003.23
2018-08-14T01:54:52.340Z,1003.2
2018-08-14T01:55:52.368Z,1003.26
2018-08-14T01:56:52.393Z,1003.25
2018-08-14T01:57:52.470Z,1003.31
2018-08-14T01:58:52.439Z,1003.29
2018-08-14T01:59:52.464Z,1003.34
2018-08-14T02:00:52.489Z,1003.27
2018-08-14T02:01:52.513Z,1003.3
2018-08-14T02:02:52.538Z,1003.28
2018-08-14T02:03:52.563Z,1003.26
2018-08-14T02:04:52.590Z,1003.23
2018-08-14T02:05:52.611Z,1003.23
2018-08-14T02:07:52.662Z,1003.29
2018-08-14T02:08:52.686Z,1003.3
2018-08-14T02:09:52.711Z,1003.33
2018-08-14T02:10:52.737Z,1003.29
2018-08-14T02:11:52.760Z,1003.27
2018-08-14T02:12:52.784Z,1003.3
2018-08-14T02:13:52.809Z,1003.29
2018-08-14T02:14:52.833Z,1003.32
2018-08-14T02:15:52.857Z,1003.33
2018-08-14T02:16:52.884Z,1003.31
2018-08-14T02:17:52.906Z,1003.31
2018-08-14T02:18:52.934Z,1003.34
2018-08-14T02:19:52.957Z,1003.32
2018-08-14T02:20:52.983Z,1003.35
2018-08-14T02:21:53.007Z,1003.31
2018-08-14T02:22:53.030Z,1003.32
2018-08-14T02:23:53.056Z,1003.31
2018-08-14T02:24:53.080Z,1003.29
2018-08-14T02:25:53.107Z,1003.31
2018-08-14T02:26:53.131Z,1003.32
2018-08-14T02:27:53.152Z,1003.34
2018-08-14T02:28:53.178Z,1003.33
2018-08-14T02:29:53.203Z,1003.33
2018-08-14T02:30:53.226Z,1003.31
2018-08-14T02:31:53.252Z,1003.36
2018-08-14T02:32:53.288Z,1003.33
2018-08-14T02:33:53.300Z,1003.35
2018-08-14T02:34:53.325Z,1003.35
2018-08-14T02:35:53.348Z,1003.38
2018-08-14T02:36:53.375Z,1003.4
2018-08-14T02:37:53.397Z,1003.4
2018-08-14T02:39:53.448Z,1003.4
2018-08-14T02:40:53.473Z,1003.4
2018-08-14T02:41:53.497Z,1003.39
2018-08-14T02:42:53.521Z,1003.43
2018-08-14T02:43:53.545Z,1003.38
2018-08-14T02:44:53.576Z,1003.39
2018-08-14T02:45:53.597Z,1003.4
2018-08-14T02:46:53.619Z,1003.4
2018-08-14T02:47:53.644Z,1003.48
2018-08-14T02:48:53.668Z,1003.49
2018-08-14T02:49:53.691Z,1003.53
2018-08-14T02:50:53.716Z,1003.51
2018-08-14T02:51:53.742Z,1003.58
2018-08-14T02:52:53.772Z,1003.55
2018-08-14T02:53:53.791Z,1003.56
2018-08-14T02:55:53.838Z,1003.58
2018-08-14T02:56:53.865Z,1003.52
2018-08-14T02:57:53.887Z,1003.54
2018-08-14T02:58:53.913Z,1003.57
2018-08-14T02:59:53.936Z,1003.55
2018-08-14T03:00:53.961Z,1003.59
2018-08-14T03:01:53.986Z,1003.57
2018-08-14T03:02:54.010Z,1003.57
2018-08-14T03:03:54.035Z,1003.57
2018-08-14T03:04:54.158Z,1003.59
2018-08-14T03:05:54.097Z,1003.6
2018-08-14T03:06:54.108Z,1003.57
2018-08-14T03:07:54.131Z,1003.59
2018-08-14T03:08:54.157Z,1003.57
2018-08-14T03:09:54.183Z,1003.6
2018-08-14T03:11:54.230Z,1003.55
2018-08-14T03:12:54.254Z,1003.56
2018-08-14T03:13:54.278Z,1003.55
2018-08-14T03:14:54.303Z,1003.55
2018-08-14T03:15:54.327Z,1003.54
2018-08-14T03:16:54.352Z,1003.56
2018-08-14T03:17:54.376Z,1003.56
2018-08-14T03:18:54.401Z,1003.52
2018-08-14T03:19:54.425Z,1003.54
2018-08-14T03:20:54.450Z,1003.57
2018-08-14T03:21:54.472Z,1003.6
2018-08-14T03:22:54.497Z,1003.6
2018-08-14T03:23:54.526Z,1003.59
2018-08-14T03:24:54.548Z,1003.68
2018-08-14T03:25:54.575Z,1003.64
2018-08-14T03:27:54.620Z,1003.71
2018-08-14T03:28:54.643Z,1003.64
2018-08-14T03:29:54.666Z,1003.69
2018-08-14T03:30:54.693Z,1003.68
2018-08-14T03:31:54.721Z,1003.68
2018-08-14T03:32:54.738Z,1003.7
2018-08-14T03:33:54.766Z,1003.7
2018-08-14T03:34:54.790Z,1003.68
2018-08-14T03:35:54.814Z,1003.69
2018-08-14T03:36:54.843Z,1003.67
2018-08-14T03:37:54.862Z,1003.68
2018-08-14T03:38:54.887Z,1003.69
2018-08-14T03:39:54.915Z,1003.72
2018-08-14T03:40:54.936Z,1003.79
2018-08-14T03:42:54.991Z,1003.72
2018-08-14T03:43:55.009Z,1003.7
2018-08-14T03:44:55.033Z,1003.75
2018-08-14T03:45:55.057Z,1003.72
2018-08-14T03:46:55.082Z,1003.75
2018-08-14T03:47:55.104Z,1003.82
2018-08-14T03:48:55.129Z,1003.82
2018-08-14T03:49:55.155Z,1003.84
2018-08-14T03:50:55.182Z,1003.82
2018-08-14T03:51:55.203Z,1003.8
2018-08-14T03:52:55.226Z,1003.82
2018-08-14T03:53:55.251Z,1003.86
2018-08-14T03:54:55.278Z,1003.87
2018-08-14T03:55:55.299Z,1003.88
2018-08-14T03:56:55.324Z,1003.93
2018-08-14T03:57:55.350Z,1003.95
2018-08-14T03:58:55.372Z,1003.93
2018-08-14T03:59:55.397Z,1003.93
2018-08-14T04:00:55.421Z,1003.94
2018-08-14T04:01:55.445Z,1003.93
2018-08-14T04:02:55.469Z,1003.88
2018-08-14T04:03:55.493Z,1003.91
2018-08-14T04:04:55.517Z,1003.91
2018-08-14T04:05:55.544Z,1003.95
2018-08-14T04:06:55.566Z,1003.92
2018-08-14T04:07:55.592Z,1003.92
2018-08-14T04:08:55.615Z,1003.93
2018-08-14T04:09:55.639Z,1003.9
2018-08-14T04:10:55.664Z,1003.91
2018-08-14T04:11:55.688Z,1003.94
2018-08-14T04:12:55.712Z,1003.92
2018-08-14T04:14:55.764Z,1003.93
2018-08-14T04:15:55.784Z,1003.96
2018-08-14T04:16:55.809Z,1003.97
2018-08-14T04:17:55.833Z,1003.97
2018-08-14T04:18:55.858Z,1003.98
2018-08-14T04:19:55.882Z,1004.01
2018-08-14T04:20:55.906Z,1004
2018-08-14T04:21:55.931Z,1004.03
2018-08-14T04:22:55.953Z,1003.98
2018-08-14T04:23:55.978Z,1004.02
2018-08-14T04:24:56.003Z,1003.99
2018-08-14T04:25:56.028Z,1004.06
2018-08-14T04:26:56.052Z,1004.08
2018-08-14T04:27:56.076Z,1004.05
2018-08-14T04:28:56.100Z,1004.08
2018-08-14T04:30:56.150Z,1004.1
2018-08-14T04:31:56.173Z,1004.14
2018-08-14T04:32:56.197Z,1004.1
2018-08-14T04:33:56.225Z,1004.09
2018-08-14T04:34:56.245Z,1004.16
2018-08-14T04:35:56.270Z,1004.17
2018-08-14T04:36:56.295Z,1004.2
2018-08-14T04:37:56.320Z,1004.18
2018-08-14T04:38:56.343Z,1004.24
2018-08-14T04:39:56.367Z,1004.2
2018-08-14T04:40:56.392Z,1004.22
2018-08-14T04:41:56.415Z,1004.23
2018-08-14T04:42:56.440Z,1004.27
2018-08-14T04:43:56.467Z,1004.33
2018-08-14T04:44:56.489Z,1004.32
2018-08-14T04:46:56.537Z,1004.32
2018-08-14T04:47:56.561Z,1004.33
2018-08-14T04:48:56.586Z,1004.33
2018-08-14T04:49:56.610Z,1004.36
2018-08-14T04:50:56.635Z,1004.29
2018-08-14T04:51:56.660Z,1004.32
2018-08-14T04:52:56.685Z,1004.32
2018-08-14T04:53:56.717Z,1004.3
2018-08-14T04:54:56.732Z,1004.4
2018-08-14T04:55:56.757Z,1004.4
2018-08-14T04:56:56.780Z,1004.47
2018-08-14T04:57:56.806Z,1004.5
2018-08-14T04:58:56.831Z,1004.52
2018-08-14T04:59:56.856Z,1004.56
2018-08-14T05:00:56.880Z,1004.49
2018-08-14T05:02:56.932Z,1004.57
2018-08-14T05:03:56.957Z,1004.57
2018-08-14T05:04:56.982Z,1004.63
2018-08-14T05:05:57.007Z,1004.68
2018-08-14T05:06:57.038Z,1004.69
2018-08-14T05:07:57.060Z,1004.68
2018-08-14T05:08:57.115Z,1004.69
2018-08-14T05:09:57.111Z,1004.88
2018-08-14T05:10:57.139Z,1004.86
2018-08-14T05:11:57.163Z,1004.9
2018-08-14T05:12:57.191Z,1004.88
2018-08-14T05:13:57.221Z,1004.83
2018-08-14T05:14:57.246Z,1004.75
2018-08-14T05:15:57.273Z,1004.77
2018-08-14T05:17:57.327Z,1004.72
2018-08-14T05:18:57.356Z,1004.84
2018-08-14T05:19:57.383Z,1004.85
2018-08-14T05:20:57.410Z,1004.76
2018-08-14T05:21:57.439Z,1004.74
2018-08-14T05:22:57.463Z,1004.86
2018-08-14T05:23:57.492Z,1004.9
2018-08-14T05:24:57.522Z,1004.93
2018-08-14T05:25:57.630Z,1004.92
2018-08-14T05:26:57.574Z,1005.07
2018-08-14T05:27:57.601Z,1004.9
2018-08-14T05:28:57.631Z,1005.08
2018-08-14T05:29:57.658Z,1004.99
2018-08-14T05:30:57.690Z,1005.04
2018-08-14T05:31:57.715Z,1005.14
2018-08-14T05:32:57.743Z,1005.01
2018-08-14T05:33:57.771Z,1004.82
2018-08-14T05:34:57.799Z,1005.19
2018-08-14T05:35:57.831Z,1005.16
2018-08-14T05:36:57.859Z,1005.18
2018-08-14T05:37:57.886Z,1005.11
2018-08-14T05:38:57.916Z,1004.94
2018-08-14T05:39:57.945Z,1005.11
2018-08-14T05:40:57.974Z,1005.13
2018-08-14T05:41:58.008Z,1005.2
2018-08-14T05:42:58.033Z,1005.18
2018-08-14T05:43:58.063Z,1005.17
2018-08-14T05:44:58.092Z,1005.16
2018-08-14T05:45:58.123Z,1005.13
2018-08-14T05:46:58.154Z,1005.15
2018-08-14T05:47:58.183Z,1005.31
2018-08-14T05:49:58.243Z,1005.45
2018-08-14T05:50:58.275Z,1005.45
2018-08-14T05:51:58.304Z,1005.54
2018-08-14T05:52:58.390Z,1005.5
2018-08-14T05:53:58.367Z,1005.52
2018-08-14T05:54:58.402Z,1005.48
2018-08-14T05:55:58.432Z,1005.45
2018-08-14T05:56:58.460Z,1005.13
2018-08-14T05:57:58.492Z,1005.58
2018-08-14T05:58:58.524Z,1005.16
2018-08-14T05:59:58.555Z,1005.02
2018-08-14T06:00:58.588Z,1005.17
2018-08-14T06:01:58.619Z,1005.5
2018-08-14T06:02:58.650Z,1005.49
2018-08-14T06:03:58.682Z,1005.54
2018-08-14T06:05:58.752Z,1005.05
2018-08-14T06:06:58.777Z,1005.59
2018-08-14T06:07:58.809Z,1005.69
2018-08-14T06:08:58.843Z,1005.79
2018-08-14T06:09:58.870Z,1005.63
2018-08-14T06:10:58.903Z,1005.72
2018-08-14T06:11:58.935Z,1005.89
2018-08-14T06:12:58.967Z,1005.46
2018-08-14T06:13:58.998Z,1005.8
2018-08-14T06:14:59.028Z,1005.77
2018-08-14T06:15:59.062Z,1005.18
2018-08-14T06:16:59.105Z,1005.8
2018-08-14T06:17:59.124Z,1005.18
2018-08-14T06:18:59.158Z,1005.11
2018-08-14T06:19:59.190Z,1005.15
2018-08-14T06:21:59.253Z,1006.04
2018-08-14T06:22:59.284Z,1006.12
2018-08-14T06:23:59.319Z,1005.21
2018-08-14T06:24:59.348Z,1005.17
2018-08-14T06:25:59.387Z,1005.39
2018-08-14T06:26:59.412Z,1005.19
2018-08-14T06:27:59.444Z,1006.33
2018-08-14T06:28:59.474Z,1005.37
2018-08-14T06:29:59.506Z,1006.31
2018-08-14T06:30:59.548Z,1005.29
2018-08-14T06:31:59.569Z,1005.29
2018-08-14T06:32:59.602Z,1006
2018-08-14T06:33:59.633Z,1005.27
2018-08-14T06:34:59.664Z,1005.92
2018-08-14T06:35:59.695Z,1005.31
2018-08-14T06:37:59.777Z,1005.23
2018-08-14T06:38:59.793Z,1005.69
2018-08-14T06:39:59.822Z,1006.61
2018-08-14T06:40:59.859Z,1005.41
2018-08-14T06:41:59.885Z,1005.31
2018-08-14T06:42:59.914Z,1006.17
2018-08-14T06:43:59.947Z,1006.78
2018-08-14T06:44:59.978Z,1006.62
2018-08-14T06:46:00.010Z,1006.56
2018-08-14T06:47:00.041Z,1006.14
2018-08-14T06:48:00.074Z,1006.85
2018-08-14T06:49:00.156Z,1006.7
2018-08-14T06:50:00.139Z,1005.74
2018-08-14T06:51:00.170Z,1006.68
2018-08-14T06:53:00.234Z,1006.75
2018-08-14T06:54:00.266Z,1006.72
2018-08-14T06:55:00.298Z,1005.77
2018-08-14T06:56:00.332Z,1005.32
2018-08-14T06:57:00.365Z,1005.59
2018-08-14T06:58:00.395Z,1005.32
2018-08-14T06:59:00.429Z,1005.32
2018-08-14T07:00:00.463Z,1005.37
2018-08-14T07:01:00.493Z,1005.31
2018-08-14T07:02:00.528Z,1005.26
2018-08-14T07:03:00.560Z,1005.31
2018-08-14T07:04:00.592Z,1005.37
2018-08-14T07:05:00.623Z,1006.26
2018-08-14T07:06:00.656Z,1006.36
2018-08-14T07:07:00.688Z,1005.39
2018-08-14T07:08:00.720Z,1005.97
2018-08-14T07:09:00.752Z,1005.87
2018-08-14T07:10:00.784Z,1005.91
2018-08-14T07:11:00.817Z,1005.59
2018-08-14T07:12:00.848Z,1005.95
2018-08-14T07:13:00.883Z,1005.63
2018-08-14T07:14:00.917Z,1005.45
2018-08-14T07:15:00.947Z,1005.45
2018-08-14T07:16:00.979Z,1005.42
2018-08-14T07:17:01.012Z,1005.91
2018-08-14T07:18:01.045Z,1005.66
2018-08-14T07:19:01.078Z,1006.01
2018-08-14T07:20:01.110Z,1005.61
2018-08-14T07:21:01.143Z,1005.74
2018-08-14T07:22:01.177Z,1006.11
2018-08-14T07:23:01.209Z,1005.47
2018-08-14T07:25:01.274Z,1005.99
2018-08-14T07:26:01.308Z,1006.06
2018-08-14T07:27:01.340Z,1006.01
2018-08-14T07:28:01.372Z,1006.01
2018-08-14T07:29:01.407Z,1006.03
2018-08-14T07:30:01.440Z,1006.1
2018-08-14T07:31:01.473Z,1005.48
2018-08-14T07:32:01.507Z,1005.68
2018-08-14T07:33:01.540Z,1005.83
2018-08-14T07:34:01.573Z,1006.22
2018-08-14T07:35:01.607Z,1006.37
2018-08-14T07:36:01.645Z,1006.38
2018-08-14T07:37:01.674Z,1006.3
2018-08-14T07:38:01.707Z,1006.3
2018-08-14T07:39:01.741Z,1006.31
2018-08-14T07:41:01.811Z,1005.57
2018-08-14T07:42:01.846Z,1005.64
2018-08-14T07:43:01.878Z,1006.36
2018-08-14T07:44:01.913Z,1006.19
2018-08-14T07:45:01.946Z,1005.63
2018-08-14T07:46:01.981Z,1005.9
2018-08-14T07:47:02.014Z,1005.69
2018-08-14T07:48:02.050Z,1005.59
2018-08-14T07:49:02.174Z,1005.55
2018-08-14T07:50:02.138Z,1005.74
2018-08-14T07:51:02.151Z,1005.87
2018-08-14T07:52:02.185Z,1006.06
2018-08-14T07:53:02.259Z,1005.69
2018-08-14T07:54:02.252Z,1005.68
2018-08-14T07:55:02.284Z,1005.59
2018-08-14T07:57:02.350Z,1005.7
2018-08-14T07:58:02.383Z,1006.19
2018-08-14T07:59:02.415Z,1006.15
2018-08-14T08:00:02.447Z,1006.22
2018-08-14T08:01:02.482Z,1006.03
2018-08-14T08:02:02.615Z,1005.75
2018-08-14T08:03:02.547Z,1006.26
2018-08-14T08:04:02.581Z,1006.29
2018-08-14T08:05:02.614Z,1006.13
2018-08-14T08:06:02.652Z,1006.26
2018-08-14T08:07:02.679Z,1006.27
2018-08-14T08:08:02.712Z,1006.22
2018-08-14T08:09:02.747Z,1005.86
2018-08-14T08:10:02.781Z,1006.16
2018-08-14T08:11:02.813Z,1006.2
2018-08-14T08:13:02.883Z,1006.22
2018-08-14T08:14:02.915Z,1006.26
2018-08-14T08:15:02.949Z,1006.21
2018-08-14T08:16:02.982Z,1006.24
2018-08-14T08:17:03.018Z,1006.19
2018-08-14T08:18:03.050Z,1006.17
2018-08-14T08:19:03.085Z,1006.14
2018-08-14T08:20:03.121Z,1006.12
2018-08-14T08:21:03.155Z,1005.77
2018-08-14T08:22:03.190Z,1005.87
2018-08-14T08:23:03.226Z,1005.8
2018-08-14T08:24:03.259Z,1006.22
2018-08-14T08:25:03.294Z,1005.76
2018-08-14T08:26:03.357Z,1005.81
2018-08-14T08:28:03.396Z,1005.79
2018-08-14T08:29:03.430Z,1005.82
2018-08-14T08:30:03.464Z,1005.82
2018-08-14T08:31:03.498Z,1005.8
2018-08-14T08:32:03.543Z,1005.88
2018-08-14T08:33:03.565Z,1005.84
2018-08-14T08:34:03.646Z,1005.83
2018-08-14T08:35:03.631Z,1006.37
2018-08-14T08:36:03.665Z,1005.78
2018-08-14T08:37:03.692Z,1005.9
2018-08-14T08:38:03.726Z,1005.98
2018-08-14T08:39:03.758Z,1005.89
2018-08-14T08:40:03.790Z,1005.87
2018-08-14T08:41:03.821Z,1005.95
2018-08-14T08:42:03.862Z,1005.91
2018-08-14T08:43:03.887Z,1005.83
2018-08-14T08:44:03.918Z,1005.86
2018-08-14T08:45:03.953Z,1005.84
2018-08-14T08:46:03.981Z,1005.77
2018-08-14T08:47:04.014Z,1005.74
2018-08-14T08:48:04.044Z,1005.78
2018-08-14T08:49:04.166Z,1005.8
2018-08-14T08:50:04.107Z,1005.76
2018-08-14T08:51:04.193Z,1005.84
2018-08-14T08:52:04.172Z,1005.8
2018-08-14T08:53:04.200Z,1005.79
2018-08-14T08:54:04.230Z,1005.85
2018-08-14T08:55:04.261Z,1005.83
2018-08-14T08:56:04.297Z,1005.81
2018-08-14T08:57:04.321Z,1005.78
2018-08-14T08:58:04.411Z,1005.82
2018-08-14T09:00:04.414Z,1005.9
2018-08-14T09:01:04.443Z,1005.79
2018-08-14T09:02:04.472Z,1005.74
2018-08-14T09:03:04.508Z,1005.76
2018-08-14T09:04:04.533Z,1005.75
2018-08-14T09:05:04.562Z,1005.72
2018-08-14T09:06:04.591Z,1005.73
2018-08-14T09:07:04.621Z,1005.73
2018-08-14T09:08:04.654Z,1005.77
2018-08-14T09:09:04.679Z,1005.76
2018-08-14T09:10:04.710Z,1005.77
2018-08-14T09:11:04.741Z,1005.65
2018-08-14T09:12:04.771Z,1005.64
2018-08-14T09:13:04.801Z,1005.79
2018-08-14T09:14:04.831Z,1005.73
2018-08-14T09:16:04.891Z,1005.76
2018-08-14T09:17:04.922Z,1005.8
2018-08-14T09:18:04.959Z,1005.71
2018-08-14T09:19:04.985Z,1005.71
2018-08-14T09:20:05.014Z,1005.7
2018-08-14T09:21:05.047Z,1005.7
2018-08-14T09:22:05.076Z,1005.77
2018-08-14T09:23:05.109Z,1005.78
2018-08-14T09:24:05.140Z,1005.71
2018-08-14T09:25:05.173Z,1005.75
2018-08-14T09:26:05.199Z,1005.78
2018-08-14T09:27:05.229Z,1005.79
2018-08-14T09:28:05.259Z,1005.73
2018-08-14T09:29:05.290Z,1005.78
2018-08-14T09:30:05.327Z,1005.82
2018-08-14T09:32:05.380Z,1005.8
2018-08-14T09:33:05.409Z,1005.77
2018-08-14T09:34:05.443Z,1005.8
2018-08-14T09:35:05.469Z,1005.84
2018-08-14T09:36:05.498Z,1005.82
2018-08-14T09:37:05.528Z,1005.81
2018-08-14T09:38:05.557Z,1005.74
2018-08-14T09:39:05.586Z,1005.75
2018-08-14T09:40:05.615Z,1005.73
2018-08-14T09:41:05.644Z,1005.74
2018-08-14T09:42:05.673Z,1005.77
2018-08-14T09:43:05.702Z,1005.75
2018-08-14T09:44:05.731Z,1005.78
2018-08-14T09:45:05.760Z,1005.76
2018-08-14T09:46:05.794Z,1005.8
2018-08-14T09:48:05.846Z,1005.77
2018-08-14T09:49:05.876Z,1005.79
2018-08-14T09:50:05.903Z,1005.83
2018-08-14T09:51:05.931Z,1005.83
2018-08-14T09:52:05.962Z,1005.8
2018-08-14T09:53:05.989Z,1005.87
2018-08-14T09:54:06.020Z,1005.87
2018-08-14T09:55:06.049Z,1005.83
2018-08-14T09:56:06.077Z,1005.86
2018-08-14T09:57:06.108Z,1005.82
2018-08-14T09:58:06.136Z,1005.84
2018-08-14T09:59:06.164Z,1005.86
2018-08-14T10:00:06.195Z,1005.91
2018-08-14T10:01:06.230Z,1005.78
2018-08-14T10:03:06.283Z,1005.85
2018-08-14T10:04:06.318Z,1005.82
2018-08-14T10:05:06.344Z,1005.83
2018-08-14T10:06:06.373Z,1005.81
2018-08-14T10:07:06.404Z,1005.87
2018-08-14T10:08:06.432Z,1005.83
2018-08-14T10:09:06.463Z,1005.8
2018-08-14T10:10:06.492Z,1005.83
2018-08-14T10:11:06.520Z,1005.78
2018-08-14T10:12:06.651Z,1005.79
2018-08-14T10:13:06.580Z,1005.79
2018-08-14T10:14:06.610Z,1005.83
2018-08-14T10:15:06.638Z,1005.77
2018-08-14T10:16:06.667Z,1005.77
2018-08-14T10:17:06.697Z,1005.79
2018-08-14T10:18:06.727Z,1005.79
2018-08-14T10:19:06.755Z,1005.78
2018-08-14T10:20:06.786Z,1005.74
2018-08-14T10:21:06.813Z,1005.79
2018-08-14T10:22:06.842Z,1005.77
2018-08-14T10:23:06.870Z,1005.76
2018-08-14T10:24:06.906Z,1005.76
2018-08-14T10:25:06.929Z,1005.76
2018-08-14T10:26:06.957Z,1005.77
2018-08-14T10:27:06.987Z,1005.8
2018-08-14T10:28:07.016Z,1005.75
2018-08-14T10:29:07.048Z,1005.83
2018-08-14T10:30:07.073Z,1005.81
2018-08-14T10:31:07.102Z,1005.83
2018-08-14T10:32:07.131Z,1005.82
2018-08-14T10:33:07.160Z,1005.83
2018-08-14T10:35:07.219Z,1005.83
2018-08-14T10:36:07.246Z,1005.87
2018-08-14T10:37:07.375Z,1005.85
2018-08-14T10:38:07.304Z,1005.84
2018-08-14T10:39:07.332Z,1005.87
2018-08-14T10:40:07.413Z,1005.87
2018-08-14T10:41:07.391Z,1005.78
2018-08-14T10:42:07.419Z,1005.87
2018-08-14T10:43:07.450Z,1005.88
2018-08-14T10:44:07.479Z,1005.87
2018-08-14T10:45:07.507Z,1005.82
2018-08-14T10:46:07.546Z,1005.85
2018-08-14T10:47:07.566Z,1005.82
2018-08-14T10:48:07.595Z,1005.83
2018-08-14T10:49:07.625Z,1005.83
2018-08-14T10:51:07.686Z,1005.83
2018-08-14T10:52:07.714Z,1005.83
2018-08-14T10:53:07.739Z,1005.86
2018-08-14T10:54:07.770Z,1005.79
2018-08-14T10:55:07.801Z,1005.75
2018-08-14T10:56:07.826Z,1005.74
2018-08-14T10:57:07.857Z,1005.76
2018-08-14T10:58:07.922Z,1005.78
2018-08-14T10:59:07.913Z,1005.73
2018-08-14T11:00:07.944Z,1005.73
2018-08-14T11:01:07.971Z,1005.8
2018-08-14T11:02:08.003Z,1005.72
2018-08-14T11:03:08.032Z,1005.75
2018-08-14T11:04:08.059Z,1005.75
2018-08-14T11:05:08.088Z,1005.77
2018-08-14T11:07:08.145Z,1005.76
2018-08-14T11:08:08.173Z,1005.75
2018-08-14T11:09:08.203Z,1005.76
2018-08-14T11:10:08.229Z,1005.74
2018-08-14T11:11:08.258Z,1005.75
2018-08-14T11:12:08.287Z,1005.78
2018-08-14T11:13:08.316Z,1005.82
2018-08-14T11:14:08.342Z,1005.77
2018-08-14T11:15:08.373Z,1005.79
2018-08-14T11:16:08.400Z,1005.8
2018-08-14T11:17:08.429Z,1005.81
2018-08-14T11:18:08.458Z,1005.79
2018-08-14T11:19:08.488Z,1005.84
2018-08-14T11:20:08.517Z,1005.84
2018-08-14T11:21:08.544Z,1005.86
2018-08-14T11:23:08.603Z,1005.8
2018-08-14T11:24:08.630Z,1005.81
2018-08-14T11:25:08.660Z,1005.81
2018-08-14T11:26:08.687Z,1005.84
2018-08-14T11:27:08.718Z,1005.87
2018-08-14T11:28:08.746Z,1005.87
2018-08-14T11:29:08.773Z,1005.9
2018-08-14T11:30:08.803Z,1005.98
2018-08-14T11:31:08.832Z,1005.89
2018-08-14T11:32:08.861Z,1005.83
2018-08-14T11:33:08.890Z,1005.9
2018-08-14T11:34:08.919Z,1005.92
2018-08-14T11:35:08.949Z,1005.88
2018-08-14T11:36:08.977Z,1005.92
2018-08-14T11:38:09.036Z,1005.93
2018-08-14T11:39:09.064Z,1005.97
2018-08-14T11:40:09.094Z,1005.94
2018-08-14T11:41:09.123Z,1005.96
2018-08-14T11:42:09.152Z,1006.03
2018-08-14T11:43:09.180Z,1006.01
2018-08-14T11:44:09.209Z,1006.01
2018-08-14T11:45:09.240Z,1005.99
2018-08-14T11:46:09.267Z,1006
2018-08-14T11:47:09.296Z,1005.97
2018-08-14T11:48:09.325Z,1005.97
2018-08-14T11:49:09.358Z,1006.02
2018-08-14T11:50:09.384Z,1005.98
2018-08-14T11:51:09.413Z,1005.97
2018-08-14T11:52:09.443Z,1005.93
2018-08-14T11:53:09.476Z,1005.94
2018-08-14T11:54:09.499Z,1005.98
2018-08-14T11:55:09.529Z,1005.92
2018-08-14T11:56:09.561Z,1005.93
2018-08-14T11:57:09.586Z,1005.95
2018-08-14T11:58:09.615Z,1005.95
2018-08-14T11:59:09.646Z,1005.91
2018-08-14T12:00:09.674Z,1005.9
2018-08-14T12:01:09.703Z,1005.93
2018-08-14T12:02:09.784Z,1005.97
2018-08-14T12:03:09.765Z,1005.92
2018-08-14T12:04:09.790Z,1005.9
2018-08-14T12:05:09.832Z,1005.92
2018-08-14T12:06:09.847Z,1005.94
2018-08-14T12:07:09.877Z,1006
2018-08-14T12:08:09.904Z,1005.94
2018-08-14T12:10:09.967Z,1006
2018-08-14T12:11:10.050Z,1005.98
2018-08-14T12:12:10.021Z,1005.98
2018-08-14T12:13:10.047Z,1005.98
2018-08-14T12:14:10.076Z,1005.98
2018-08-14T12:15:10.108Z,1006.01
2018-08-14T12:16:10.137Z,1006.03
2018-08-14T12:17:10.162Z,1006.02
2018-08-14T12:18:10.193Z,1006
2018-08-14T12:19:10.219Z,1006
2018-08-14T12:20:10.245Z,1006.05
2018-08-14T12:21:10.276Z,1006.04
2018-08-14T12:22:10.304Z,1006.12
2018-08-14T12:23:10.331Z,1006.04
2018-08-14T12:24:10.361Z,1006.03
2018-08-14T12:26:10.418Z,1006.09
2018-08-14T12:27:10.507Z,1006.07
2018-08-14T12:28:10.479Z,1006.06
2018-08-14T12:29:10.501Z,1006.11
2018-08-14T12:30:10.532Z,1006.08
2018-08-14T12:31:10.559Z,1006.06
2018-08-14T12:32:10.590Z,1006.07
2018-08-14T12:33:10.617Z,1006.07
2018-08-14T12:34:10.642Z,1006.06
2018-08-14T12:35:10.674Z,1006.05
2018-08-14T12:36:10.698Z,1006.15
2018-08-14T12:37:10.727Z,1006.08
2018-08-14T12:38:10.754Z,1006.15
2018-08-14T12:39:10.783Z,1006.1
2018-08-14T12:40:10.823Z,1006.14
2018-08-14T12:42:10.868Z,1006.17
2018-08-14T12:43:10.894Z,1006.21
2018-08-14T12:44:10.923Z,1006.15
2018-08-14T12:45:10.950Z,1006.17
2018-08-14T12:46:10.978Z,1006.21
2018-08-14T12:47:11.007Z,1006.18
2018-08-14T12:48:11.042Z,1006.2
2018-08-14T12:49:11.062Z,1006.21
2018-08-14T12:50:11.091Z,1006.19